Date,TemperatureHighF,TemperatureAvgF,TemperatureLowF,DewpointHighF,DewpointAvgF,DewpointLowF,HumidityHigh,HumidityAvg,HumidityLow,PressureMaxIn,PressureMinIn,WindSpeedMaxMPH,WindSpeedAvgMPH,GustSpeedMaxMPH,PrecipitationSumIn
2013-3-1,30.1,25.5,18.9,22.7,20.1,15.9,88,80,68,30.49,30.35,12,6,15,0.00
2013-3-2,35.9,25.6,12.1,30.2,21.8,9.7,92,86,77,30.49,30.16,12,6,17,0.00
2013-3-3,45.6,35.0,25.9,39.3,31.5,24.4,94,87,77,30.16,29.72,14,8,19,0.00
2013-3-4,42.4,35.2,28.5,36.2,30.3,15.5,94,83,52,30.20,29.69,30,11,35,0.04
2013-3-5,35.2,27.2,22.8,20.1,17.2,14.4,80,66,51,30.53,30.20,27,16,36,0.00
2013-3-6,38.6,25.7,15.7,24.3,19.2,12.8,92,78,53,30.55,30.28,16,7,19,0.00
2013-3-7,53.8,36.1,22.9,33.8,26.4,20.0,89,70,42,30.29,30.13,19,12,25,0.00
2013-3-8,59.2,49.5,29.7,47.0,40.3,26.9,92,71,57,30.17,29.89,32,14,36,0.02
2013-3-9,62.6,46.2,30.8,54.6,43.3,28.6,97,90,63,29.82,29.52,23,14,45,0.40
2013-3-10,30.8,23.6,19.0,29.1,21.6,15.2,96,92,84,30.14,29.80,27,17,45,0.00
2013-3-11,37.1,24.6,10.8,30.8,19.0,7.7,87,79,66,30.20,30.02,15,7,45,0.00
2013-3-12,40.0,33.1,26.1,27.0,23.5,18.1,83,68,45,30.45,30.19,25,12,45,0.00
2013-3-13,42.7,31.4,21.8,31.5,24.2,17.1,87,75,58,30.53,30.29,16,7,45,0.00
2013-3-14,70.1,47.7,31.4,48.4,37.0,28.0,91,70,34,30.28,30.10,10,6,45,0.00
2013-3-15,72.3,53.6,40.1,48.2,40.7,34.6,84,65,34,30.10,29.73,14,7,18,0.00
2013-3-16,43.0,32.3,27.6,38.0,26.1,21.3,88,78,66,30.24,29.89,17,10,22,0.00
2013-3-17,47.2,32.8,25.4,34.3,27.3,21.2,94,81,57,30.22,29.80,19,10,24,0.07
2013-3-18,42.5,35.4,30.5,33.7,24.1,14.1,95,66,33,30.17,29.77,24,12,33,0.02
2013-3-19,38.9,31.8,28.0,32.5,22.8,16.5,84,70,50,30.43,30.14,15,5,21,0.00
2013-3-20,40.8,28.1,16.6,21.4,16.2,12.9,86,63,36,30.51,30.17,13,6,15,0.00
2013-3-21,34.9,29.4,24.0,25.8,19.6,13.9,77,67,58,30.18,29.95,20,13,25,0.00
2013-3-22,32.2,28.2,24.5,28.9,25.1,18.7,92,88,64,30.14,30.04,12,7,16,0.01
2013-3-23,31.1,29.3,26.1,29.3,26.6,24.1,94,90,81,30.22,30.11,15,9,21,0.00
2013-3-24,30.6,24.4,19.3,23.8,18.0,13.9,92,76,62,30.29,30.21,27,16,31,0.01
2013-3-25,28.4,24.7,19.9,19.7,17.6,14.4,87,75,60,30.51,30.29,25,15,31,0.00
2013-3-26,43.2,27.8,13.4,24.6,17.7,10.2,88,68,41,30.52,30.31,12,7,19,0.00
2013-3-27,53.9,39.0,26.5,30.8,26.5,21.7,83,63,38,30.33,30.21,12,8,19,0.00
2013-3-28,61.0,44.0,28.1,35.9,29.7,24.7,90,62,28,30.30,30.18,11,6,19,0.00
2013-3-29,68.6,52.4,36.1,47.2,37.2,30.4,83,59,34,30.25,30.03,18,9,20,0.14
2013-3-30,64.4,56.5,48.7,53.8,45.8,38.6,95,70,42,30.05,29.96,14,7,19,0.21
2013-3-31,60.9,48.1,34.7,44.9,36.0,30.0,92,67,33,30.18,29.95,18,9,24,0.07